sensor_id;sensor_type;location;lat;lon;timestamp;temperature;humidity
7498;DHT22;3790;48.806;9.140;2023-05-10T00:02:25;13.50;99.90
7498;DHT22;3790;48.806;9.140;2023-05-10T00:07:26;13.40;99.90
7498;DHT22;3790;48.806;9.140;2023-05-10T00:12:27;13.40;99.90
7498;DHT22;3790;48.806;9.140;2023-05-10T00:17:27;13.20;99.90
7498;DHT22;3790;48.806;9.140;2023-05-10T00:22:28;12.80;99.90
7498;DHT22;3790;48.806;9.140;2023-05-10T00:27:28;12.70;99.90
7498;DHT22;3790;48.806;9.140;2023-05-10T00:32:29;12.60;99.90
7498;DHT22;3790;48.806;9.140;2023-05-10T00:37:29;12.50;99.90
7498;DHT22;3790;48.806;9.140;2023-05-10T00:42:30;12.40;99.90
7498;DHT22;3790;48.806;9.140;2023-05-10T00:47:31;12.30;99.90
7498;DHT22;3790;48.806;9.140;2023-05-10T00:52:32;12.20;99.90
7498;DHT22;3790;48.806;9.140;2023-05-10T00:57:33;12.20;99.90
7498;DHT22;3790;48.806;9.140;2023-05-10T01:02:34;12.20;99.90
7498;DHT22;3790;48.806;9.140;2023-05-10T01:07:35;12.10;99.90
7498;DHT22;3790;48.806;9.140;2023-05-10T01:12:38;12.20;99.90
7498;DHT22;3790;48.806;9.140;2023-05-10T01:17:42;12.10;99.90
7498;DHT22;3790;48.806;9.140;2023-05-10T01:33:19;12.10;99.90
7498;DHT22;3790;48.806;9.140;2023-05-10T01:38:45;12.10;99.90
7498;DHT22;3790;48.806;9.140;2023-05-10T01:49:10;12.00;99.90
7498;DHT22;3790;48.806;9.140;2023-05-10T01:54:13;12.00;99.90
7498;DHT22;3790;48.806;9.140;2023-05-10T01:59:17;11.90;99.90
7498;DHT22;3790;48.806;9.140;2023-05-10T02:04:19;12.00;99.90
7498;DHT22;3790;48.806;9.140;2023-05-10T02:09:22;12.10;99.90
7498;DHT22;3790;48.806;9.140;2023-05-10T02:14:25;12.20;99.90
7498;DHT22;3790;48.806;9.140;2023-05-10T02:19:28;12.30;99.90
7498;DHT22;3790;48.806;9.140;2023-05-10T02:24:29;12.30;99.90
7498;DHT22;3790;48.806;9.140;2023-05-10T02:29:31;12.30;99.90
7498;DHT22;3790;48.806;9.140;2023-05-10T02:34:33;12.20;99.90
7498;DHT22;3790;48.806;9.140;2023-05-10T02:39:33;12.20;99.90
7498;DHT22;3790;48.806;9.140;2023-05-10T02:44:35;12.30;99.90
7498;DHT22;3790;48.806;9.140;2023-05-10T02:49:38;12.40;99.90
7498;DHT22;3790;48.806;9.140;2023-05-10T02:54:46;12.40;99.90
7498;DHT22;3790;48.806;9.140;2023-05-10T02:59:49;12.50;99.90
7498;DHT22;3790;48.806;9.140;2023-05-10T03:04:49;12.60;99.90
7498;DHT22;3790;48.806;9.140;2023-05-10T03:09:50;12.60;99.90
7498;DHT22;3790;48.806;9.140;2023-05-10T03:15:11;12.50;99.90
7498;DHT22;3790;48.806;9.140;2023-05-10T03:20:41;12.40;99.90
7498;DHT22;3790;48.806;9.140;2023-05-10T03:25:43;12.30;99.90
7498;DHT22;3790;48.806;9.140;2023-05-10T03:30:44;12.20;99.90
7498;DHT22;3790;48.806;9.140;2023-05-10T03:35:46;12.10;99.90
7498;DHT22;3790;48.806;9.140;2023-05-10T03:40:46;12.10;99.90
7498;DHT22;3790;48.806;9.140;2023-05-10T03:45:47;12.10;99.90
7498;DHT22;3790;48.806;9.140;2023-05-10T03:50:47;12.10;99.90
7498;DHT22;3790;48.806;9.140;2023-05-10T03:55:49;12.10;99.90
7498;DHT22;3790;48.806;9.140;2023-05-10T04:00:51;12.10;99.90
7498;DHT22;3790;48.806;9.140;2023-05-10T04:06:01;12.20;99.90
7498;DHT22;3790;48.806;9.140;2023-05-10T04:11:10;12.20;99.90
7498;DHT22;3790;48.806;9.140;2023-05-10T04:16:10;12.20;99.90
7498;DHT22;3790;48.806;9.140;2023-05-10T04:21:12;12.20;99.90
7498;DHT22;3790;48.806;9.140;2023-05-10T04:26:13;12.20;99.90
7498;DHT22;3790;48.806;9.140;2023-05-10T04:31:14;12.20;99.90
7498;DHT22;3790;48.806;9.140;2023-05-10T04:36:14;12.30;99.90
7498;DHT22;3790;48.806;9.140;2023-05-10T04:41:15;12.30;99.90
7498;DHT22;3790;48.806;9.140;2023-05-10T04:46:15;12.30;99.90
7498;DHT22;3790;48.806;9.140;2023-05-10T04:51:16;12.40;99.90
7498;DHT22;3790;48.806;9.140;2023-05-10T04:56:17;12.50;99.90
7498;DHT22;3790;48.806;9.140;2023-05-10T05:01:17;12.60;99.90
7498;DHT22;3790;48.806;9.140;2023-05-10T05:06:18;12.70;99.90
7498;DHT22;3790;48.806;9.140;2023-05-10T05:11:19;12.80;99.90
7498;DHT22;3790;48.806;9.140;2023-05-10T05:16:20;13.00;99.90
7498;DHT22;3790;48.806;9.140;2023-05-10T05:21:20;13.20;99.90
7498;DHT22;3790;48.806;9.140;2023-05-10T05:26:21;13.40;99.90
7498;DHT22;3790;48.806;9.140;2023-05-10T05:31:22;13.50;99.90
7498;DHT22;3790;48.806;9.140;2023-05-10T05:36:22;13.50;99.90
7498;DHT22;3790;48.806;9.140;2023-05-10T05:41:23;13.60;99.90
7498;DHT22;3790;48.806;9.140;2023-05-10T05:46:24;13.60;99.90
7498;DHT22;3790;48.806;9.140;2023-05-10T05:51:25;13.70;99.90
7498;DHT22;3790;48.806;9.140;2023-05-10T05:56:25;13.80;99.90
7498;DHT22;3790;48.806;9.140;2023-05-10T06:01:26;13.90;99.90
7498;DHT22;3790;48.806;9.140;2023-05-10T06:06:26;13.90;99.90
7498;DHT22;3790;48.806;9.140;2023-05-10T06:11:27;13.80;99.90
7498;DHT22;3790;48.806;9.140;2023-05-10T06:16:31;13.90;99.90
7498;DHT22;3790;48.806;9.140;2023-05-10T06:21:32;13.90;99.90
7498;DHT22;3790;48.806;9.140;2023-05-10T06:26:33;14.10;99.90
7498;DHT22;3790;48.806;9.140;2023-05-10T06:31:33;14.00;99.90
7498;DHT22;3790;48.806;9.140;2023-05-10T06:36:34;14.00;99.90
7498;DHT22;3790;48.806;9.140;2023-05-10T06:41:34;14.10;99.90
7498;DHT22;3790;48.806;9.140;2023-05-10T06:46:35;14.20;99.90
7498;DHT22;3790;48.806;9.140;2023-05-10T06:51:36;14.10;99.90
7498;DHT22;3790;48.806;9.140;2023-05-10T06:56:37;14.10;99.90
7498;DHT22;3790;48.806;9.140;2023-05-10T07:01:37;14.10;99.90
7498;DHT22;3790;48.806;9.140;2023-05-10T07:06:38;14.20;99.90
7498;DHT22;3790;48.806;9.140;2023-05-10T07:11:38;14.20;99.90
7498;DHT22;3790;48.806;9.140;2023-05-10T07:16:39;14.50;99.90
7498;DHT22;3790;48.806;9.140;2023-05-10T07:21:39;14.80;99.90
7498;DHT22;3790;48.806;9.140;2023-05-10T07:26:42;15.20;99.90
7498;DHT22;3790;48.806;9.140;2023-05-10T07:31:43;15.70;99.90
7498;DHT22;3790;48.806;9.140;2023-05-10T07:36:43;15.90;99.90
7498;DHT22;3790;48.806;9.140;2023-05-10T07:41:44;16.30;99.90
7498;DHT22;3790;48.806;9.140;2023-05-10T07:46:44;16.60;99.90
7498;DHT22;3790;48.806;9.140;2023-05-10T07:51:45;16.70;99.90
7498;DHT22;3790;48.806;9.140;2023-05-10T07:56:45;16.30;99.90
7498;DHT22;3790;48.806;9.140;2023-05-10T08:01:47;16.00;99.90
7498;DHT22;3790;48.806;9.140;2023-05-10T08:06:47;16.10;99.90
7498;DHT22;3790;48.806;9.140;2023-05-10T08:11:48;15.90;99.90
7498;DHT22;3790;48.806;9.140;2023-05-10T08:16:48;15.60;99.90
7498;DHT22;3790;48.806;9.140;2023-05-10T08:21:49;15.20;99.90
7498;DHT22;3790;48.806;9.140;2023-05-10T08:26:50;15.30;99.90
7498;DHT22;3790;48.806;9.140;2023-05-10T08:31:50;15.40;99.90
7498;DHT22;3790;48.806;9.140;2023-05-10T08:36:50;15.30;99.90
7498;DHT22;3790;48.806;9.140;2023-05-10T08:41:52;15.50;99.90
7498;DHT22;3790;48.806;9.140;2023-05-10T08:46:54;15.80;99.90
7498;DHT22;3790;48.806;9.140;2023-05-10T08:51:56;15.70;99.90
7498;DHT22;3790;48.806;9.140;2023-05-10T08:56:57;16.20;99.90
7498;DHT22;3790;48.806;9.140;2023-05-10T09:01:59;16.20;99.90
7498;DHT22;3790;48.806;9.140;2023-05-10T09:07:00;16.20;99.90
7498;DHT22;3790;48.806;9.140;2023-05-10T09:12:01;16.10;99.90
7498;DHT22;3790;48.806;9.140;2023-05-10T09:17:02;16.30;99.90
7498;DHT22;3790;48.806;9.140;2023-05-10T09:22:02;16.30;99.90
7498;DHT22;3790;48.806;9.140;2023-05-10T09:27:03;16.50;99.90
7498;DHT22;3790;48.806;9.140;2023-05-10T09:32:03;16.70;99.90
7498;DHT22;3790;48.806;9.140;2023-05-10T09:37:04;17.00;99.90
7498;DHT22;3790;48.806;9.140;2023-05-10T09:42:07;17.20;99.90
7498;DHT22;3790;48.806;9.140;2023-05-10T09:47:10;17.10;99.90
7498;DHT22;3790;48.806;9.140;2023-05-10T09:52:10;17.10;99.90
7498;DHT22;3790;48.806;9.140;2023-05-10T09:57:22;17.20;99.90
7498;DHT22;3790;48.806;9.140;2023-05-10T10:02:28;16.80;99.90
7498;DHT22;3790;48.806;9.140;2023-05-10T10:07:29;16.50;99.90
7498;DHT22;3790;48.806;9.140;2023-05-10T10:12:30;16.40;99.90
7498;DHT22;3790;48.806;9.140;2023-05-10T10:17:31;16.20;99.90
7498;DHT22;3790;48.806;9.140;2023-05-10T10:22:32;16.20;99.90
7498;DHT22;3790;48.806;9.140;2023-05-10T10:38:14;17.90;99.90
7498;DHT22;3790;48.806;9.140;2023-05-10T10:43:26;17.30;99.90
7498;DHT22;3790;48.806;9.140;2023-05-10T10:48:27;17.30;99.90
7498;DHT22;3790;48.806;9.140;2023-05-10T10:53:27;17.00;99.90
7498;DHT22;3790;48.806;9.140;2023-05-10T10:58:31;16.50;99.90
7498;DHT22;3790;48.806;9.140;2023-05-10T11:03:32;16.10;99.90
7498;DHT22;3790;48.806;9.140;2023-05-10T11:08:34;16.20;99.90
7498;DHT22;3790;48.806;9.140;2023-05-10T11:13:42;15.40;99.90
7498;DHT22;3790;48.806;9.140;2023-05-10T11:24:00;15.20;99.90
7498;DHT22;3790;48.806;9.140;2023-05-10T11:29:01;15.70;99.90
7498;DHT22;3790;48.806;9.140;2023-05-10T11:34:03;16.90;99.90
7498;DHT22;3790;48.806;9.140;2023-05-10T11:39:04;17.20;99.90
7498;DHT22;3790;48.806;9.140;2023-05-10T11:44:05;17.30;99.90
7498;DHT22;3790;48.806;9.140;2023-05-10T11:49:07;17.00;99.90
7498;DHT22;3790;48.806;9.140;2023-05-10T11:54:10;16.30;99.90
7498;DHT22;3790;48.806;9.140;2023-05-10T11:59:14;15.90;99.90
7498;DHT22;3790;48.806;9.140;2023-05-10T12:04:15;15.70;99.90
7498;DHT22;3790;48.806;9.140;2023-05-10T12:09:16;15.40;99.90
7498;DHT22;3790;48.806;9.140;2023-05-10T12:14:16;15.60;99.90
7498;DHT22;3790;48.806;9.140;2023-05-10T12:19:20;16.00;99.90
7498;DHT22;3790;48.806;9.140;2023-05-10T12:24:24;16.50;99.90
7498;DHT22;3790;48.806;9.140;2023-05-10T12:29:25;17.20;99.90
7498;DHT22;3790;48.806;9.140;2023-05-10T12:34:33;17.00;99.90
7498;DHT22;3790;48.806;9.140;2023-05-10T12:39:41;17.00;99.90
7498;DHT22;3790;48.806;9.140;2023-05-10T12:44:42;16.90;99.90
7498;DHT22;3790;48.806;9.140;2023-05-10T12:49:42;16.70;99.90
7498;DHT22;3790;48.806;9.140;2023-05-10T12:54:43;16.60;99.90
7498;DHT22;3790;48.806;9.140;2023-05-10T12:59:44;17.10;99.90
7498;DHT22;3790;48.806;9.140;2023-05-10T13:04:44;17.20;99.90
7498;DHT22;3790;48.806;9.140;2023-05-10T13:09:46;16.60;99.90
7498;DHT22;3790;48.806;9.140;2023-05-10T13:14:47;16.10;99.90
7498;DHT22;3790;48.806;9.140;2023-05-10T13:19:47;16.20;99.90
7498;DHT22;3790;48.806;9.140;2023-05-10T13:24:48;16.40;99.90
7498;DHT22;3790;48.806;9.140;2023-05-10T13:29:48;16.40;99.90
7498;DHT22;3790;48.806;9.140;2023-05-10T13:34:49;16.40;99.90
7498;DHT22;3790;48.806;9.140;2023-05-10T13:39:49;16.50;99.90
7498;DHT22;3790;48.806;9.140;2023-05-10T13:44:50;16.80;99.90
7498;DHT22;3790;48.806;9.140;2023-05-10T13:49:51;17.30;99.90
7498;DHT22;3790;48.806;9.140;2023-05-10T13:54:52;17.60;99.90
7498;DHT22;3790;48.806;9.140;2023-05-10T13:59:55;17.20;99.90
7498;DHT22;3790;48.806;9.140;2023-05-10T14:04:55;17.00;99.90
7498;DHT22;3790;48.806;9.140;2023-05-10T14:09:56;17.40;99.90
7498;DHT22;3790;48.806;9.140;2023-05-10T14:14:56;17.50;99.90
7498;DHT22;3790;48.806;9.140;2023-05-10T14:19:58;17.70;99.90
7498;DHT22;3790;48.806;9.140;2023-05-10T14:24:58;17.90;99.90
7498;DHT22;3790;48.806;9.140;2023-05-10T14:29:59;17.60;99.90
7498;DHT22;3790;48.806;9.140;2023-05-10T14:35:00;17.40;99.90
7498;DHT22;3790;48.806;9.140;2023-05-10T14:40:00;17.50;99.90
7498;DHT22;3790;48.806;9.140;2023-05-10T14:45:01;17.70;99.90
7498;DHT22;3790;48.806;9.140;2023-05-10T14:50:04;17.60;99.90
7498;DHT22;3790;48.806;9.140;2023-05-10T14:55:06;17.70;99.90
7498;DHT22;3790;48.806;9.140;2023-05-10T15:00:07;17.70;99.90
7498;DHT22;3790;48.806;9.140;2023-05-10T15:05:08;17.70;99.90
7498;DHT22;3790;48.806;9.140;2023-05-10T15:10:09;17.80;99.90
7498;DHT22;3790;48.806;9.140;2023-05-10T15:15:09;17.60;99.90
7498;DHT22;3790;48.806;9.140;2023-05-10T15:20:10;17.80;99.90
7498;DHT22;3790;48.806;9.140;2023-05-10T15:25:11;18.10;99.90
7498;DHT22;3790;48.806;9.140;2023-05-10T15:30:12;17.90;99.90
7498;DHT22;3790;48.806;9.140;2023-05-10T15:35:12;18.00;99.90
7498;DHT22;3790;48.806;9.140;2023-05-10T15:40:14;18.10;99.90
7498;DHT22;3790;48.806;9.140;2023-05-10T15:45:17;17.70;99.90
7498;DHT22;3790;48.806;9.140;2023-05-10T15:50:18;17.60;99.90
7498;DHT22;3790;48.806;9.140;2023-05-10T15:55:19;17.90;99.90
7498;DHT22;3790;48.806;9.140;2023-05-10T16:00:19;17.50;99.90
7498;DHT22;3790;48.806;9.140;2023-05-10T16:05:20;17.40;99.90
7498;DHT22;3790;48.806;9.140;2023-05-10T16:10:21;17.70;99.90
7498;DHT22;3790;48.806;9.140;2023-05-10T16:15:22;17.50;99.90
7498;DHT22;3790;48.806;9.140;2023-05-10T16:20:22;17.30;99.90
7498;DHT22;3790;48.806;9.140;2023-05-10T16:25:23;17.20;99.90
7498;DHT22;3790;48.806;9.140;2023-05-10T16:30:24;17.10;99.90
7498;DHT22;3790;48.806;9.140;2023-05-10T16:35:26;17.10;99.90
7498;DHT22;3790;48.806;9.140;2023-05-10T16:40:29;16.80;99.90
7498;DHT22;3790;48.806;9.140;2023-05-10T16:45:30;16.90;99.90
7498;DHT22;3790;48.806;9.140;2023-05-10T16:50:31;17.10;99.90
7498;DHT22;3790;48.806;9.140;2023-05-10T16:55:32;16.90;99.90
7498;DHT22;3790;48.806;9.140;2023-05-10T17:00:33;16.70;99.90
7498;DHT22;3790;48.806;9.140;2023-05-10T17:05:33;16.60;99.90
7498;DHT22;3790;48.806;9.140;2023-05-10T17:10:34;16.50;99.90
7498;DHT22;3790;48.806;9.140;2023-05-10T17:15:36;16.40;99.90
7498;DHT22;3790;48.806;9.140;2023-05-10T17:20:36;16.10;99.90
7498;DHT22;3790;48.806;9.140;2023-05-10T17:25:37;16.00;99.90
7498;DHT22;3790;48.806;9.140;2023-05-10T17:30:38;16.10;99.90
7498;DHT22;3790;48.806;9.140;2023-05-10T17:35:38;16.00;99.90
7498;DHT22;3790;48.806;9.140;2023-05-10T17:40:42;16.30;99.90
7498;DHT22;3790;48.806;9.140;2023-05-10T17:45:42;16.40;99.90
7498;DHT22;3790;48.806;9.140;2023-05-10T17:50:45;16.20;99.90
7498;DHT22;3790;48.806;9.140;2023-05-10T17:55:50;16.00;99.90
7498;DHT22;3790;48.806;9.140;2023-05-10T18:00:51;15.90;99.90
7498;DHT22;3790;48.806;9.140;2023-05-10T18:05:52;15.80;99.90
7498;DHT22;3790;48.806;9.140;2023-05-10T18:10:54;15.70;99.90
7498;DHT22;3790;48.806;9.140;2023-05-10T18:15:55;15.50;99.90
7498;DHT22;3790;48.806;9.140;2023-05-10T18:20:56;15.30;99.90
7498;DHT22;3790;48.806;9.140;2023-05-10T18:25:57;15.20;99.90
7498;DHT22;3790;48.806;9.140;2023-05-10T18:30:58;14.90;99.90
7498;DHT22;3790;48.806;9.140;2023-05-10T18:35:59;14.80;99.90
7498;DHT22;3790;48.806;9.140;2023-05-10T18:41:00;15.00;99.90
7498;DHT22;3790;48.806;9.140;2023-05-10T18:46:00;15.00;99.90
7498;DHT22;3790;48.806;9.140;2023-05-10T18:51:01;14.80;99.90
7498;DHT22;3790;48.806;9.140;2023-05-10T18:56:02;14.60;99.90
7498;DHT22;3790;48.806;9.140;2023-05-10T19:01:03;14.50;99.90
7498;DHT22;3790;48.806;9.140;2023-05-10T19:06:03;14.40;99.90
7498;DHT22;3790;48.806;9.140;2023-05-10T19:11:04;14.30;99.90
7498;DHT22;3790;48.806;9.140;2023-05-10T19:16:05;14.20;99.90
7498;DHT22;3790;48.806;9.140;2023-05-10T19:21:09;14.00;99.90
7498;DHT22;3790;48.806;9.140;2023-05-10T19:26:10;13.90;99.90
7498;DHT22;3790;48.806;9.140;2023-05-10T19:31:11;13.90;99.90
7498;DHT22;3790;48.806;9.140;2023-05-10T19:36:12;13.90;99.90
7498;DHT22;3790;48.806;9.140;2023-05-10T19:41:12;13.90;99.90
7498;DHT22;3790;48.806;9.140;2023-05-10T19:46:15;13.90;99.90
7498;DHT22;3790;48.806;9.140;2023-05-10T19:51:16;13.90;99.90
7498;DHT22;3790;48.806;9.140;2023-05-10T19:56:16;13.90;99.90
7498;DHT22;3790;48.806;9.140;2023-05-10T20:01:17;13.90;99.90
7498;DHT22;3790;48.806;9.140;2023-05-10T20:06:18;13.90;99.90
7498;DHT22;3790;48.806;9.140;2023-05-10T20:11:18;13.90;99.90
7498;DHT22;3790;48.806;9.140;2023-05-10T20:16:19;13.90;99.90
7498;DHT22;3790;48.806;9.140;2023-05-10T20:21:20;13.80;99.90
7498;DHT22;3790;48.806;9.140;2023-05-10T20:26:22;13.80;99.90
7498;DHT22;3790;48.806;9.140;2023-05-10T20:31:22;13.70;99.90
7498;DHT22;3790;48.806;9.140;2023-05-10T20:36:23;13.70;99.90
7498;DHT22;3790;48.806;9.140;2023-05-10T20:41:23;13.60;99.90
7498;DHT22;3790;48.806;9.140;2023-05-10T20:46:24;13.60;99.90
7498;DHT22;3790;48.806;9.140;2023-05-10T20:51:26;13.50;99.90
7498;DHT22;3790;48.806;9.140;2023-05-10T20:56:29;13.40;99.90
7498;DHT22;3790;48.806;9.140;2023-05-10T21:01:30;13.50;99.90
7498;DHT22;3790;48.806;9.140;2023-05-10T21:06:31;13.50;99.90
7498;DHT22;3790;48.806;9.140;2023-05-10T21:11:32;13.50;99.90
7498;DHT22;3790;48.806;9.140;2023-05-10T21:16:34;13.30;99.90
7498;DHT22;3790;48.806;9.140;2023-05-10T21:21:34;13.10;99.90
7498;DHT22;3790;48.806;9.140;2023-05-10T21:26:35;13.10;99.90
7498;DHT22;3790;48.806;9.140;2023-05-10T21:31:35;13.00;99.90
7498;DHT22;3790;48.806;9.140;2023-05-10T21:36:36;13.00;99.90
7498;DHT22;3790;48.806;9.140;2023-05-10T21:41:37;12.90;99.90
7498;DHT22;3790;48.806;9.140;2023-05-10T21:46:37;12.90;99.90
7498;DHT22;3790;48.806;9.140;2023-05-10T21:51:38;12.90;99.90
7498;DHT22;3790;48.806;9.140;2023-05-10T21:56:38;12.90;99.90
7498;DHT22;3790;48.806;9.140;2023-05-10T22:01:39;12.80;99.90
7498;DHT22;3790;48.806;9.140;2023-05-10T22:06:39;12.80;99.90
7498;DHT22;3790;48.806;9.140;2023-05-10T22:11:40;12.70;99.90
7498;DHT22;3790;48.806;9.140;2023-05-10T22:16:50;12.60;99.90
7498;DHT22;3790;48.806;9.140;2023-05-10T22:21:51;12.50;99.90
7498;DHT22;3790;48.806;9.140;2023-05-10T22:26:55;12.40;99.90
7498;DHT22;3790;48.806;9.140;2023-05-10T22:31:56;12.40;99.90
7498;DHT22;3790;48.806;9.140;2023-05-10T22:36:57;12.40;99.90
7498;DHT22;3790;48.806;9.140;2023-05-10T22:41:58;12.40;99.90
7498;DHT22;3790;48.806;9.140;2023-05-10T22:46:59;12.40;99.90
7498;DHT22;3790;48.806;9.140;2023-05-10T22:52:00;12.40;99.90
7498;DHT22;3790;48.806;9.140;2023-05-10T22:57:00;12.40;99.90
7498;DHT22;3790;48.806;9.140;2023-05-10T23:02:01;12.40;99.90
7498;DHT22;3790;48.806;9.140;2023-05-10T23:07:01;12.30;99.90
7498;DHT22;3790;48.806;9.140;2023-05-10T23:12:02;12.30;99.90
7498;DHT22;3790;48.806;9.140;2023-05-10T23:17:02;12.40;99.90
7498;DHT22;3790;48.806;9.140;2023-05-10T23:22:03;12.40;99.90
7498;DHT22;3790;48.806;9.140;2023-05-10T23:27:04;12.40;99.90
7498;DHT22;3790;48.806;9.140;2023-05-10T23:32:04;12.30;99.90
7498;DHT22;3790;48.806;9.140;2023-05-10T23:37:05;12.40;99.90
7498;DHT22;3790;48.806;9.140;2023-05-10T23:42:05;12.50;99.90
7498;DHT22;3790;48.806;9.140;2023-05-10T23:47:06;12.50;99.90
7498;DHT22;3790;48.806;9.140;2023-05-10T23:52:07;12.50;99.90
7498;DHT22;3790;48.806;9.140;2023-05-10T23:57:08;12.50;99.90
